Time;durP1;ratioP1;P1;durP2;ratioP2;P2;SDS_P1;SDS_P2;PMS_P1;PMS_P2;Temp;Humidity;BMP_temperature;BMP_pressure;BME280_temperature;BME280_humidity;BME280_pressure;Samples;Min_cycle;Max_cycle;Signal;HPM_P1;HPM_P2
2022/02/14 00:01:07;;;;;;;6.67;2.50;;;;;10.90;99488.00;;;;10506270;28;20716;-76
2022/02/14 00:06:09;;;;;;;7.00;2.47;;;;;11.00;99482.00;;;;10494849;28;20276;-76
2022/02/14 00:11:12;;;;;;;9.70;2.63;;;;;10.90;99471.00;;;;10483674;28;20193;-75
2022/02/14 00:16:14;;;;;;;5.83;2.57;;;;;10.90;99464.00;;;;10459516;28;20193;-76
2022/02/14 00:21:16;;;;;;;6.60;3.00;;;;;10.90;99454.00;;;;10476042;28;20709;-76
2022/02/14 00:26:17;;;;;;;6.10;2.70;;;;;10.80;99434.00;;;;10497687;28;20748;-75
2022/02/14 00:31:19;;;;;;;9.30;2.37;;;;;10.70;99450.00;;;;10495447;28;20212;-76
2022/02/14 00:36:21;;;;;;;5.23;2.93;;;;;10.80;99428.00;;;;10483939;28;20197;-76
2022/02/14 00:41:25;;;;;;;5.70;2.47;;;;;10.90;99400.00;;;;10483527;28;20300;-76
2022/02/14 00:46:27;;;;;;;3.57;2.23;;;;;11.00;99415.00;;;;10487596;28;20194;-76
2022/02/14 00:51:29;;;;;;;9.60;2.57;;;;;11.00;99415.00;;;;10563771;28;20196;-76
2022/02/14 00:56:30;;;;;;;4.30;2.40;;;;;11.00;99392.00;;;;10534016;28;20219;-76
2022/02/14 01:01:32;;;;;;;6.80;2.47;;;;;11.00;99386.00;;;;10508852;28;20189;-77
2022/02/14 01:06:34;;;;;;;3.17;2.27;;;;;11.00;99382.00;;;;10508975;28;20308;-77
2022/02/14 01:11:36;;;;;;;4.97;2.00;;;;;10.90;99373.00;;;;10491965;28;20258;-77
2022/02/14 01:16:38;;;;;;;4.53;2.00;;;;;10.90;99365.00;;;;10525177;28;20204;-76
2022/02/14 01:21:42;;;;;;;5.33;2.10;;;;;10.90;99357.00;;;;10491694;28;20552;-77
2022/02/14 01:26:44;;;;;;;4.83;2.40;;;;;10.90;99357.00;;;;10507938;28;20205;-77
2022/02/14 01:31:46;;;;;;;3.57;1.87;;;;;10.90;99330.00;;;;10542131;28;20296;-76
2022/02/14 01:36:49;;;;;;;9.20;2.40;;;;;11.00;99336.00;;;;10522894;28;20197;-76
2022/02/14 01:41:51;;;;;;;4.57;2.10;;;;;11.10;99327.00;;;;10540776;28;20633;-77
2022/02/14 01:46:54;;;;;;;2.47;1.73;;;;;11.10;99309.00;;;;10523699;28;20291;-76
2022/02/14 01:51:56;;;;;;;7.27;1.97;;;;;11.10;99305.00;;;;10490716;28;20240;-76
2022/02/14 01:56:58;;;;;;;3.03;1.83;;;;;11.10;99313.00;;;;10539740;28;20196;-76
2022/02/14 02:02:04;;;;;;;4.73;2.03;;;;;11.00;99286.00;;;;10539623;28;20659;-76
2022/02/14 02:07:07;;;;;;;4.47;1.90;;;;;11.00;99282.00;;;;10488859;28;20255;-76
2022/02/14 02:12:26;;;;;;;5.13;2.03;;;;;11.00;99270.00;;;;10505875;28;20250;-77
2022/02/14 02:17:32;;;;;;;5.77;1.90;;;;;11.10;99276.00;;;;10541623;28;20208;-76
2022/02/14 02:22:35;;;;;;;5.70;2.40;;;;;11.10;99281.00;;;;10530783;28;20218;-77
2022/02/14 02:27:39;;;;;;;4.10;2.10;;;;;11.00;99280.00;;;;10530342;28;20601;-76
2022/02/14 02:32:41;;;;;;;2.70;1.80;;;;;11.00;99268.00;;;;10488143;28;20216;-76
2022/02/14 02:37:43;;;;;;;4.30;1.87;;;;;11.00;99247.00;;;;10488250;28;20254;-76
2022/02/14 02:42:45;;;;;;;3.77;2.03;;;;;11.10;99249.00;;;;10477565;28;20292;-77
2022/02/14 02:47:47;;;;;;;5.50;2.00;;;;;11.10;99251.00;;;;10500990;28;20212;-76
2022/02/14 02:52:49;;;;;;;4.30;1.87;;;;;11.10;99221.00;;;;10504832;28;20189;-76
2022/02/14 02:57:51;;;;;;;5.47;1.77;;;;;11.10;99216.00;;;;10487547;28;20239;-77
2022/02/14 03:02:55;;;;;;;6.57;2.10;;;;;11.00;99210.00;;;;10522118;28;20211;-77
2022/02/14 03:07:57;;;;;;;6.70;1.90;;;;;11.00;99218.00;;;;10537438;28;20217;-77
2022/02/14 03:12:59;;;;;;;3.03;1.40;;;;;11.00;99219.00;;;;10519934;28;20308;-77
2022/02/14 03:18:00;;;;;;;3.83;2.00;;;;;11.00;99194.00;;;;10536180;28;20204;-76
2022/02/14 03:23:02;;;;;;;7.27;2.43;;;;;11.00;99192.00;;;;10536802;28;20223;-76
2022/02/14 03:28:04;;;;;;;2.90;1.57;;;;;11.00;99199.00;;;;10502646;28;20633;-77
2022/02/14 03:33:06;;;;;;;3.53;1.97;;;;;11.00;99197.00;;;;10497237;28;20205;-76
2022/02/14 03:38:08;;;;;;;2.80;2.00;;;;;11.00;99196.00;;;;10488133;28;20188;-77
2022/02/14 03:43:10;;;;;;;4.90;1.73;;;;;10.90;99196.00;;;;10479263;28;20280;-77
2022/02/14 03:48:13;;;;;;;1.70;1.17;;;;;11.00;99188.00;;;;10482371;28;20297;-76
2022/02/14 03:53:14;;;;;;;5.73;1.93;;;;;11.00;99177.00;;;;10481157;28;20184;-76
2022/02/14 03:58:17;;;;;;;5.63;2.00;;;;;11.00;99182.00;;;;10502729;28;20193;-76
2022/02/14 04:03:19;;;;;;;3.53;1.40;;;;;11.00;99162.00;;;;10503846;28;20228;-76
2022/02/14 04:08:22;;;;;;;2.63;1.47;;;;;11.10;99158.00;;;;10488399;28;20225;-76
2022/02/14 04:13:24;;;;;;;5.10;2.03;;;;;11.00;99165.00;;;;10522968;28;20194;-76
2022/02/14 04:18:26;;;;;;;5.17;2.00;;;;;11.00;99154.00;;;;10511355;28;20234;-76
2022/02/14 04:23:28;;;;;;;3.43;1.87;;;;;11.00;99150.00;;;;10517321;28;20197;-76
2022/02/14 04:28:30;;;;;;;4.20;1.60;;;;;10.90;99164.00;;;;10516051;28;20247;-76
2022/02/14 04:33:31;;;;;;;3.80;1.60;;;;;10.90;99159.00;;;;10516514;28;20224;-76
2022/02/14 04:38:33;;;;;;;4.47;1.60;;;;;10.90;99170.00;;;;10501184;28;20672;-76
2022/02/14 04:43:35;;;;;;;4.13;1.63;;;;;10.90;99163.00;;;;10515885;28;20196;-76
2022/02/14 04:48:37;;;;;;;4.70;2.30;;;;;10.90;99152.00;;;;10469903;28;20220;-76
2022/02/14 04:53:39;;;;;;;3.50;1.80;;;;;10.90;99144.00;;;;10502249;28;20632;-76
2022/02/14 04:58:41;;;;;;;3.17;1.80;;;;;10.90;99148.00;;;;10471930;28;20197;-76
2022/02/14 05:03:43;;;;;;;6.43;1.90;;;;;11.00;99153.00;;;;10515156;28;20209;-76
2022/02/14 05:08:45;;;;;;;7.10;2.10;;;;;11.00;99149.00;;;;10503026;28;20267;-76
2022/02/14 05:13:47;;;;;;;4.07;1.70;;;;;11.00;99153.00;;;;10514250;28;20217;-75
2022/02/14 05:18:50;;;;;;;2.77;1.77;;;;;11.00;99140.00;;;;10508938;28;20197;-77
2022/02/14 05:23:52;;;;;;;2.73;2.10;;;;;11.10;99147.00;;;;10476714;28;20676;-76
2022/02/14 05:28:55;;;;;;;5.93;1.90;;;;;11.10;99152.00;;;;10509999;28;20236;-76
2022/02/14 05:33:57;;;;;;;4.67;1.73;;;;;11.00;99147.00;;;;10490650;28;20231;-77
2022/02/14 05:38:59;;;;;;;7.47;2.53;;;;;11.00;99172.00;;;;10520129;28;20185;-77
2022/02/14 05:44:01;;;;;;;5.77;2.03;;;;;11.00;99171.00;;;;10497843;28;20232;-76
2022/02/14 05:49:03;;;;;;;3.77;1.60;;;;;11.00;99183.00;;;;10473989;28;20231;-77
2022/02/14 05:54:06;;;;;;;1.93;1.37;;;;;11.00;99173.00;;;;10493194;28;20239;-76
2022/02/14 05:59:08;;;;;;;4.70;1.80;;;;;11.00;99193.00;;;;10479662;28;20242;-76
2022/02/14 06:04:11;;;;;;;2.93;1.40;;;;;11.00;99194.00;;;;10508571;28;20221;-77
2022/02/14 06:09:13;;;;;;;2.83;1.80;;;;;11.00;99184.00;;;;10503414;28;20201;-77
2022/02/14 06:14:15;;;;;;;4.00;1.70;;;;;11.00;99210.00;;;;10499409;28;20239;-77
2022/02/14 06:19:16;;;;;;;4.63;1.97;;;;;10.90;99214.00;;;;10479145;28;20295;-76
2022/02/14 06:24:18;;;;;;;5.17;1.40;;;;;10.50;99204.00;;;;10516533;28;20279;-76
2022/02/14 06:29:20;;;;;;;4.73;1.70;;;;;10.10;99211.00;;;;10498219;28;20205;-77
2022/02/14 06:34:22;;;;;;;4.67;1.83;;;;;9.90;99224.00;;;;10503751;28;20289;-76
2022/02/14 06:39:24;;;;;;;3.40;2.10;;;;;9.90;99248.00;;;;10496824;28;20216;-76
2022/02/14 06:44:27;;;;;;;2.77;1.70;;;;;9.60;99266.00;;;;10509814;28;20627;-78
2022/02/14 06:49:29;;;;;;;5.83;2.30;;;;;9.40;99311.00;;;;10525858;28;20258;-78
2022/02/14 06:54:31;;;;;;;6.17;2.27;;;;;9.20;99340.00;;;;10506320;28;20685;-78
2022/02/14 06:59:32;;;;;;;3.93;2.20;;;;;9.00;99342.00;;;;10483697;28;20185;-77
2022/02/14 07:04:34;;;;;;;6.97;2.10;;;;;8.90;99349.00;;;;10506557;28;20292;-77
2022/02/14 07:09:36;;;;;;;2.87;2.13;;;;;8.70;99368.00;;;;10478073;28;20213;-78
2022/02/14 07:14:39;;;;;;;5.33;3.87;;;;;8.70;99379.00;;;;10462838;28;20305;-78
2022/02/14 07:19:41;;;;;;;6.00;3.77;;;;;8.70;99392.00;;;;10444635;28;20209;-77
2022/02/14 07:24:42;;;;;;;3.87;2.97;;;;;8.60;99399.00;;;;10475857;28;20246;-78
2022/02/14 07:29:44;;;;;;;5.37;2.97;;;;;8.50;99411.00;;;;10458583;28;20205;-78
2022/02/14 07:34:47;;;;;;;4.10;2.00;;;;;8.50;99412.00;;;;10466218;28;20228;-78
2022/02/14 07:39:50;;;;;;;3.67;2.10;;;;;8.50;99419.00;;;;10498111;28;20243;-77
2022/02/14 07:44:52;;;;;;;3.87;1.53;;;;;8.60;99425.00;;;;10448438;28;20276;-77
2022/02/14 07:49:54;;;;;;;3.03;1.53;;;;;8.70;99447.00;;;;10485415;28;20228;-78
2022/02/14 07:54:56;;;;;;;1.90;1.33;;;;;8.60;99466.00;;;;10521870;28;20652;-77
2022/02/14 07:59:59;;;;;;;1.60;1.40;;;;;8.70;99465.00;;;;10492449;28;20299;-77
2022/02/14 08:05:01;;;;;;;4.90;1.83;;;;;9.00;99468.00;;;;10495980;28;20214;-77
2022/02/14 08:10:06;;;;;;;3.03;1.37;;;;;9.20;99484.00;;;;10488076;28;20695;-77
2022/02/14 08:15:08;;;;;;;2.20;0.93;;;;;9.40;99481.00;;;;10508804;28;20184;-77
2022/02/14 08:20:10;;;;;;;2.30;1.33;;;;;9.50;99489.00;;;;10490378;28;20285;-77
2022/02/14 08:25:13;;;;;;;4.87;1.10;;;;;9.70;99497.00;;;;10473489;28;20223;-77
2022/02/14 08:30:15;;;;;;;2.07;1.00;;;;;9.70;99518.00;;;;10517010;28;20250;-77
2022/02/14 08:35:17;;;;;;;1.70;0.77;;;;;9.60;99526.00;;;;10505356;28;20192;-77
2022/02/14 08:40:20;;;;;;;4.70;1.10;;;;;9.60;99527.00;;;;10499313;28;20186;-77
2022/02/14 08:45:22;;;;;;;5.53;0.90;;;;;9.60;99535.00;;;;10512599;28;20232;-77
2022/02/14 08:50:24;;;;;;;2.07;1.00;;;;;10.00;99541.00;;;;10497943;28;20209;-76
2022/02/14 08:55:28;;;;;;;3.97;0.80;;;;;10.10;99534.00;;;;10502776;28;20197;-78
2022/02/14 09:00:32;;;;;;;1.27;0.87;;;;;10.40;99548.00;;;;10499458;28;20196;-76
2022/02/14 09:05:34;;;;;;;6.87;1.13;;;;;10.30;99550.00;;;;10504527;28;20220;-76
2022/02/14 09:10:36;;;;;;;1.37;0.87;;;;;10.30;99557.00;;;;10537378;28;20200;-77
2022/02/14 09:15:38;;;;;;;3.80;1.40;;;;;10.20;99562.00;;;;10539896;28;20185;-77
2022/02/14 09:20:41;;;;;;;3.33;0.80;;;;;10.00;99567.00;;;;10506595;28;20200;-77
2022/02/14 09:25:43;;;;;;;4.47;0.97;;;;;10.40;99553.00;;;;10528311;28;20197;-77
2022/02/14 09:30:46;;;;;;;2.70;1.20;;;;;10.30;99551.00;;;;10499859;28;20207;-77
2022/02/14 09:35:49;;;;;;;3.23;1.30;;;;;10.30;99551.00;;;;10516164;28;20711;-77
2022/02/14 09:40:50;;;;;;;4.30;1.07;;;;;10.70;99565.00;;;;10540640;28;20230;-77
2022/02/14 09:45:52;;;;;;;3.40;1.27;;;;;11.80;99571.00;;;;10500673;28;20240;-77
2022/02/14 09:50:54;;;;;;;2.83;1.43;;;;;11.50;99580.00;;;;10486836;28;20237;-77
2022/02/14 09:55:56;;;;;;;3.17;1.20;;;;;12.00;99590.00;;;;10521629;28;20193;-77
2022/02/14 10:00:59;;;;;;;3.67;1.90;;;;;12.60;99594.00;;;;10520192;28;20715;-76
2022/02/14 10:06:02;;;;;;;3.77;1.47;;;;;13.20;99602.00;;;;10517817;28;20213;-77
2022/02/14 10:11:16;;;;;;;2.63;1.23;;;;;12.80;99628.00;;;;10523306;28;20240;-76
2022/02/14 10:16:19;;;;;;;3.93;1.30;;;;;12.70;99625.00;;;;10519998;28;20204;-77
2022/02/14 10:21:27;;;;;;;3.07;1.17;;;;;12.80;99635.00;;;;10510912;28;20201;-77
2022/02/14 10:26:45;;;;;;;3.37;1.40;;;;;13.10;99645.00;;;;10487320;28;20193;-77
2022/02/14 10:31:54;;;;;;;5.30;1.73;;;;;13.40;99649.00;;;;10535563;28;20201;-76
2022/02/14 10:36:56;;;;;;;7.73;1.33;;;;;13.80;99670.00;;;;10493586;28;20625;-77
2022/02/14 10:42:01;;;;;;;7.38;1.48;;;;;13.90;99682.00;;;;10507318;28;20188;-76
2022/02/14 10:47:12;;;;;;;4.63;1.30;;;;;12.50;99694.00;;;;10518400;28;20189;-77
2022/02/14 10:52:17;;;;;;;7.47;1.40;;;;;11.90;99717.00;;;;10511103;28;20245;-76
2022/02/14 10:57:26;;;;;;;3.97;1.20;;;;;13.10;99707.00;;;;10490927;28;20201;-76
2022/02/14 11:02:29;;;;;;;6.70;1.40;;;;;14.00;99699.00;;;;10501760;28;20205;-76
2022/02/14 11:07:31;;;;;;;5.80;1.30;;;;;14.80;99712.00;;;;10520817;28;20213;-76
2022/02/14 11:12:36;;;;;;;4.65;0.90;;;;;14.60;99712.00;;;;10489175;28;20611;-76
2022/02/14 11:17:44;;;;;;;6.43;1.67;;;;;13.70;99709.00;;;;10532078;28;20213;-77
2022/02/14 11:22:50;;;;;;;4.97;1.47;;;;;13.20;99716.00;;;;10500876;28;20258;-77
2022/02/14 11:27:57;;;;;;;7.00;1.27;;;;;13.10;99730.00;;;;10515106;28;20253;-77
2022/02/14 11:33:09;;;;;;;9.73;1.40;;;;;13.50;99709.00;;;;10499389;28;20248;-77
2022/02/14 11:38:11;;;;;;;9.00;1.40;;;;;14.50;99702.00;;;;10510081;28;20224;-76
2022/02/14 11:43:19;;;;;;;7.10;1.63;;;;;15.70;99703.00;;;;10490094;28;20268;-76
2022/02/14 11:48:23;;;;;;;4.60;1.50;;;;;14.50;99696.00;;;;10518065;28;20644;-76
2022/02/14 11:53:47;;;;;;;8.98;1.80;;;;;14.90;99692.00;;;;10484949;28;20287;-76
2022/02/14 11:58:57;;;;;;;5.87;1.67;;;;;15.40;99683.00;;;;10475563;28;20193;-76
2022/02/14 12:04:32;;;;;;;4.40;1.90;;;;;14.60;99699.00;;;;10515258;28;20263;-76
2022/02/14 12:09:57;;;;;;;6.93;1.80;;;;;14.20;99699.00;;;;10515374;28;20258;-76
2022/02/14 12:20:35;;;;;;;8.10;1.80;;;;;13.50;99701.00;;;;10477530;28;20297;-76
2022/02/14 12:25:48;;;;;;;6.17;1.73;;;;;13.60;99699.00;;;;10481216;28;20599;-77
2022/02/14 12:30:51;;;;;;;7.37;1.60;;;;;12.50;99695.00;;;;10526555;28;20208;-76
2022/02/14 12:35:56;;;;;;;7.57;2.10;;;;;12.30;99693.00;;;;10508662;28;20200;-77
2022/02/14 12:41:03;;;;;;;6.23;1.73;;;;;12.60;99696.00;;;;10517983;28;20239;-76
2022/02/14 12:46:08;;;;;;;8.50;1.87;;;;;12.30;99702.00;;;;10535341;28;20254;-76
2022/02/14 12:51:24;;;;;;;6.37;2.00;;;;;12.30;99715.00;;;;10496941;28;20251;-76
2022/02/14 12:56:26;;;;;;;4.83;1.70;;;;;12.20;99716.00;;;;10560093;27;20279;-76
2022/02/14 13:01:33;;;;;;;10.83;1.73;;;;;12.10;99715.00;;;;10520435;28;20224;-76
2022/02/14 13:06:42;;;;;;;8.13;2.33;;;;;12.70;99714.00;;;;10500739;28;20820;-77
2022/02/14 13:11:45;;;;;;;8.40;1.70;;;;;13.70;99698.00;;;;10541759;28;20247;-76
2022/02/14 13:16:54;;;;;;;10.53;1.93;;;;;14.00;99706.00;;;;10567413;28;20200;-77
2022/02/14 13:21:57;;;;;;;5.90;1.70;;;;;13.20;99712.00;;;;10567362;28;20282;-76
2022/02/14 13:27:05;;;;;;;7.33;1.60;;;;;12.60;99715.00;;;;10539474;28;20185;-76
2022/02/14 13:32:12;;;;;;;5.50;1.70;;;;;12.70;99709.00;;;;10515564;28;20209;-76
2022/02/14 13:37:14;;;;;;;5.33;1.63;;;;;13.50;99713.00;;;;10506034;28;20212;-76
2022/02/14 13:42:21;;;;;;;7.23;1.70;;;;;13.50;99724.00;;;;10489622;28;20212;-76
2022/02/14 13:47:24;;;;;;;8.97;1.40;;;;;13.70;99709.00;;;;10507793;28;20193;-76
2022/02/14 13:52:28;;;;;;;6.20;1.60;;;;;13.90;99724.00;;;;10493378;28;20576;-76
2022/02/14 13:57:30;;;;;;;6.90;1.50;;;;;14.10;99718.00;;;;10542579;28;20205;-76
2022/02/14 14:02:32;;;;;;;6.63;1.30;;;;;12.60;99730.00;;;;10460161;28;20189;-77
2022/02/14 14:07:48;;;;;;;8.10;2.07;;;;;12.50;99708.00;;;;10504657;28;20217;-76
2022/02/14 14:12:53;;;;;;;7.10;1.90;;;;;13.40;99718.00;;;;10519523;28;20284;-76
2022/02/14 14:17:56;;;;;;;8.07;1.70;;;;;13.30;99712.00;;;;10544604;28;20201;-76
2022/02/14 14:22:58;;;;;;;10.87;1.60;;;;;15.30;99707.00;;;;10500452;28;20243;-76
2022/02/14 14:28:01;;;;;;;7.17;1.37;;;;;14.60;99722.00;;;;10491561;28;20197;-76
2022/02/14 14:33:03;;;;;;;6.97;1.80;;;;;12.70;99742.00;;;;10518651;28;20208;-76
2022/02/14 14:38:05;;;;;;;4.87;1.27;;;;;11.60;99771.00;;;;10493826;28;20225;-76
2022/02/14 14:43:08;;;;;;;7.03;1.30;;;;;10.10;99773.00;;;;10490820;28;20192;-77
2022/02/14 14:48:14;;;;;;;2.00;0.80;;;;;11.20;99713.00;;;;10484139;28;20626;-77
2022/02/14 14:53:16;;;;;;;2.33;0.80;;;;;12.60;99731.00;;;;10454692;28;20209;-76
2022/02/14 14:58:19;;;;;;;3.63;1.40;;;;;13.60;99693.00;;;;10482059;28;20632;-76
2022/02/14 15:03:21;;;;;;;5.70;1.73;;;;;14.00;99707.00;;;;10501763;28;20193;-76
2022/02/14 15:08:23;;;;;;;4.53;1.47;;;;;14.50;99664.00;;;;10464612;28;20217;-76
2022/02/14 15:13:42;;;;;;;7.57;1.97;;;;;14.80;99668.00;;;;10459820;28;20211;-77
2022/02/14 15:24:42;;;;;;;5.43;1.70;;;;;17.00;99676.00;;;;10452155;28;20240;-77
2022/02/14 15:29:45;;;;;;;9.83;1.97;;;;;16.70;99685.00;;;;10421042;28;20224;-77
2022/02/14 15:34:47;;;;;;;5.90;1.83;;;;;14.50;99734.00;;;;10440113;28;20288;-77
2022/02/14 15:39:49;;;;;;;5.50;1.53;;;;;12.90;99729.00;;;;10419931;28;20209;-78
2022/02/14 15:44:51;;;;;;;3.13;1.57;;;;;12.10;99770.00;;;;10381450;28;20557;-78
2022/02/14 15:49:53;;;;;;;5.40;1.50;;;;;11.20;99768.00;;;;10425317;28;20221;-77
2022/02/14 15:54:55;;;;;;;9.00;1.40;;;;;10.50;99772.00;;;;10434152;28;20807;-78
2022/02/14 15:59:58;;;;;;;2.87;1.33;;;;;10.00;99769.00;;;;10416376;28;20191;-78
2022/02/14 16:05:01;;;;;;;4.67;1.80;;;;;9.70;99783.00;;;;10383792;28;20242;-78
2022/02/14 16:10:03;;;;;;;7.50;1.60;;;;;9.40;99786.00;;;;10428402;28;20228;-77
2022/02/14 16:15:13;;;;;;;5.90;1.67;;;;;9.30;99787.00;;;;10408237;28;20194;-78
2022/02/14 16:20:16;;;;;;;6.40;1.53;;;;;9.20;99788.00;;;;10462100;28;20241;-77
2022/02/14 16:25:19;;;;;;;8.47;2.20;;;;;9.00;99797.00;;;;10465535;28;20189;-77
2022/02/14 16:30:21;;;;;;;9.13;2.87;;;;;8.90;99792.00;;;;10449289;28;20262;-78
2022/02/14 16:35:23;;;;;;;6.87;1.90;;;;;8.80;99804.00;;;;10465129;28;20231;-77
2022/02/14 16:40:25;;;;;;;6.40;1.70;;;;;8.70;99804.00;;;;10449265;28;20251;-78
2022/02/14 16:45:29;;;;;;;10.13;2.20;;;;;8.60;99812.00;;;;10466115;28;20197;-77
2022/02/14 16:50:31;;;;;;;8.80;1.63;;;;;8.50;99817.00;;;;10449455;28;20438;-78
2022/02/14 16:55:34;;;;;;;8.03;2.13;;;;;8.40;99825.00;;;;10451719;28;20542;-78
2022/02/14 17:00:35;;;;;;;5.80;1.57;;;;;8.40;99837.00;;;;10386240;28;20240;-79
2022/02/14 17:05:37;;;;;;;9.90;2.10;;;;;8.30;99841.00;;;;10450729;28;20263;-78
2022/02/14 17:10:39;;;;;;;8.67;2.03;;;;;8.30;99851.00;;;;10447249;28;20242;-78
2022/02/14 17:15:43;;;;;;;5.63;1.67;;;;;8.20;99860.00;;;;10464201;28;20586;-79
2022/02/14 17:20:44;;;;;;;9.87;2.47;;;;;8.20;99857.00;;;;10457164;28;20201;-79
2022/02/14 17:25:47;;;;;;;8.10;2.10;;;;;8.20;99867.00;;;;10414487;28;20226;-79
2022/02/14 17:30:49;;;;;;;4.47;1.90;;;;;8.10;99863.00;;;;10430855;28;20342;-79
2022/02/14 17:35:51;;;;;;;7.97;2.43;;;;;8.10;99878.00;;;;10441315;28;20347;-78
2022/02/14 17:40:58;;;;;;;8.40;2.27;;;;;8.00;99899.00;;;;10426834;28;20187;-78
2022/02/14 17:46:01;;;;;;;7.93;2.23;;;;;8.00;99904.00;;;;10444121;28;20202;-78
2022/02/14 17:51:03;;;;;;;9.20;2.53;;;;;7.90;99906.00;;;;10463258;28;20203;-79
2022/02/14 17:56:05;;;;;;;10.43;2.80;;;;;7.70;99898.00;;;;10471270;28;20255;-79
2022/02/14 18:01:08;;;;;;;8.43;2.93;;;;;7.50;99902.00;;;;10482373;28;20202;-79
2022/02/14 18:06:10;;;;;;;7.10;2.97;;;;;7.40;99904.00;;;;10475244;28;20207;-78
2022/02/14 18:11:12;;;;;;;8.80;3.30;;;;;7.20;99915.00;;;;10465875;28;20211;-79
2022/02/14 18:16:14;;;;;;;12.43;5.23;;;;;7.10;99922.00;;;;10447506;28;20214;-79
2022/02/14 18:21:16;;;;;;;16.90;6.73;;;;;7.20;99942.00;;;;10429393;28;20190;-78
2022/02/14 18:26:19;;;;;;;9.90;3.80;;;;;7.50;99942.00;;;;10482475;28;20189;-78
2022/02/14 18:31:22;;;;;;;8.10;2.47;;;;;7.70;99953.00;;;;10511808;28;20209;-79
2022/02/14 18:36:25;;;;;;;13.10;2.77;;;;;7.70;99944.00;;;;10412836;28;20229;-78
2022/02/14 18:41:27;;;;;;;6.50;2.50;;;;;7.70;99944.00;;;;10429491;28;20237;-79
2022/02/14 18:46:30;;;;;;;8.67;2.37;;;;;7.50;99946.00;;;;10448295;28;20202;-78
2022/02/14 18:51:31;;;;;;;7.70;2.70;;;;;7.30;99944.00;;;;10396060;28;20230;-79
2022/02/14 18:56:34;;;;;;;8.17;2.30;;;;;7.20;99951.00;;;;10427504;28;20193;-79
2022/02/14 19:01:35;;;;;;;10.17;2.37;;;;;7.20;99966.00;;;;10428572;28;20194;-79
2022/02/14 19:06:58;;;;;;;5.43;2.50;;;;;7.20;99973.00;;;;10431938;28;20186;-78
2022/02/14 19:12:01;;;;;;;5.17;1.83;;;;;7.20;99989.00;;;;10443789;28;20231;-79
2022/02/14 19:17:19;;;;;;;7.10;2.00;;;;;7.20;99994.00;;;;10413026;28;20218;-78
2022/02/14 19:22:21;;;;;;;7.43;2.77;;;;;7.30;100003.00;;;;10473965;28;20266;-78
2022/02/14 19:27:24;;;;;;;10.07;2.83;;;;;7.40;100004.00;;;;10484679;28;20189;-79
2022/02/14 19:32:25;;;;;;;6.73;2.60;;;;;7.40;99998.00;;;;10467310;28;20482;-78
2022/02/14 19:37:27;;;;;;;9.37;2.80;;;;;7.50;100008.00;;;;10467453;28;20224;-79
2022/02/14 19:42:29;;;;;;;8.17;2.70;;;;;7.60;100011.00;;;;10451793;28;20564;-78
2022/02/14 19:47:31;;;;;;;5.50;2.07;;;;;7.70;100026.00;;;;10484753;28;20255;-79
2022/02/14 19:52:33;;;;;;;9.47;3.10;;;;;7.70;100012.00;;;;10465821;28;20201;-78
2022/02/14 19:57:35;;;;;;;12.10;3.77;;;;;7.60;100017.00;;;;10453264;28;20185;-79
2022/02/14 20:02:37;;;;;;;11.83;3.50;;;;;7.70;100025.00;;;;10433610;28;20194;-79
2022/02/14 20:07:39;;;;;;;8.83;2.90;;;;;7.70;100025.00;;;;10434245;28;20213;-77
2022/02/14 20:12:41;;;;;;;15.70;3.33;;;;;7.70;100041.00;;;;10467572;28;20655;-78
2022/02/14 20:17:43;;;;;;;7.07;2.83;;;;;7.70;100050.00;;;;10434861;28;20210;-79
2022/02/14 20:22:45;;;;;;;7.97;2.63;;;;;7.60;100068.00;;;;10450456;28;20612;-80
2022/02/14 20:27:47;;;;;;;9.90;2.67;;;;;7.20;100055.00;;;;10495630;28;20200;-79
2022/02/14 20:32:50;;;;;;;10.53;2.73;;;;;7.00;100052.00;;;;10473200;28;20271;-79
2022/02/14 20:37:53;;;;;;;7.17;2.20;;;;;6.80;100060.00;;;;10448637;28;20683;-79
2022/02/14 20:42:55;;;;;;;5.30;2.27;;;;;6.70;100047.00;;;;10453440;28;20193;-79
2022/02/14 20:47:58;;;;;;;8.97;2.60;;;;;6.60;100060.00;;;;10432053;28;20198;-79
2022/02/14 20:53:00;;;;;;;5.03;1.90;;;;;6.40;100062.00;;;;10432090;28;20218;-79
2022/02/14 20:58:03;;;;;;;3.47;1.70;;;;;6.20;100075.00;;;;10415594;28;20680;-78
2022/02/14 21:03:06;;;;;;;7.20;2.30;;;;;6.10;100078.00;;;;10415954;28;20284;-79
2022/02/14 21:08:08;;;;;;;4.60;2.23;;;;;5.90;100096.00;;;;10450729;28;20191;-78
2022/02/14 21:13:11;;;;;;;10.33;3.10;;;;;5.70;100088.00;;;;10398930;28;20215;-78
2022/02/14 21:18:13;;;;;;;9.87;2.87;;;;;5.60;100101.00;;;;10472516;28;20221;-78
2022/02/14 21:23:15;;;;;;;13.30;4.10;;;;;5.60;100107.00;;;;10488567;28;20660;-78
2022/02/14 21:28:17;;;;;;;7.60;3.60;;;;;5.70;100112.00;;;;10474720;28;20196;-78
2022/02/14 21:33:19;;;;;;;13.73;4.43;;;;;5.80;100114.00;;;;10531060;28;20201;-78
2022/02/14 21:38:21;;;;;;;16.03;5.47;;;;;5.90;100111.00;;;;10514064;28;20223;-78
2022/02/14 21:43:28;;;;;;;14.90;4.40;;;;;5.90;100127.00;;;;10432326;28;20565;-77
2022/02/14 21:48:30;;;;;;;11.20;3.50;;;;;5.80;100132.00;;;;10471869;28;20656;-78
2022/02/14 21:53:32;;;;;;;7.83;3.07;;;;;5.80;100128.00;;;;10437068;28;20702;-78
2022/02/14 21:58:34;;;;;;;7.73;3.20;;;;;5.70;100145.00;;;;10451566;28;20205;-78
2022/02/14 22:03:37;;;;;;;6.20;2.40;;;;;5.60;100146.00;;;;10427527;28;20652;-79
2022/02/14 22:08:39;;;;;;;4.97;2.63;;;;;5.60;100147.00;;;;10454593;28;20232;-78
2022/02/14 22:13:41;;;;;;;4.10;2.07;;;;;5.70;100148.00;;;;10438456;28;20205;-78
2022/02/14 22:18:43;;;;;;;7.23;2.53;;;;;5.70;100154.00;;;;10457069;28;20222;-78
2022/02/14 22:23:45;;;;;;;6.73;2.00;;;;;5.80;100163.00;;;;10412890;28;20655;-78
2022/02/14 22:28:47;;;;;;;4.93;2.60;;;;;5.90;100159.00;;;;10522419;28;20193;-78
2022/02/14 22:33:49;;;;;;;5.63;2.10;;;;;5.90;100163.00;;;;10495751;28;20744;-78
2022/02/14 22:38:50;;;;;;;11.57;2.00;;;;;6.00;100167.00;;;;10511871;28;20200;-78
2022/02/14 22:43:52;;;;;;;9.00;2.70;;;;;6.00;100176.00;;;;10494851;28;20193;-79
2022/02/14 22:48:56;;;;;;;6.97;3.20;;;;;6.00;100167.00;;;;10461992;28;20856;-78
2022/02/14 22:53:59;;;;;;;6.03;2.70;;;;;5.90;100170.00;;;;10431894;28;20194;-79
2022/02/14 22:59:03;;;;;;;6.53;1.93;;;;;5.80;100181.00;;;;10396451;28;20556;-78
2022/02/14 23:04:05;;;;;;;8.57;3.23;;;;;5.80;100181.00;;;;10472852;28;20871;-78
2022/02/14 23:14:27;;;;;;;11.33;2.60;;;;;5.70;100193.00;;;;10469018;28;20210;-78
2022/02/14 23:19:29;;;;;;;8.73;2.50;;;;;5.70;100207.00;;;;10435955;28;20209;-78
2022/02/14 23:24:31;;;;;;;8.43;3.17;;;;;5.90;100206.00;;;;10468186;28;20198;-78
2022/02/14 23:29:33;;;;;;;6.17;3.20;;;;;6.00;100199.00;;;;10435729;28;20201;-78
2022/02/14 23:34:35;;;;;;;6.10;3.30;;;;;6.20;100212.00;;;;10467870;28;20699;-78
2022/02/14 23:39:36;;;;;;;9.97;3.87;;;;;6.30;100218.00;;;;10451190;28;20726;-78
2022/02/14 23:44:40;;;;;;;5.27;3.30;;;;;6.30;100219.00;;;;10467981;28;20190;-78
2022/02/14 23:49:42;;;;;;;6.97;3.70;;;;;6.10;100213.00;;;;10467805;28;20251;-78
2022/02/14 23:54:44;;;;;;;8.80;4.10;;;;;6.00;100224.00;;;;10451124;28;20210;-78
2022/02/14 23:59:46;;;;;;;8.43;3.63;;;;;5.80;100232.00;;;;10435300;28;20189;-78
